Time;durP1;ratioP1;P1;durP2;ratioP2;P2;SDS_P1;SDS_P2;PMS_P1;PMS_P2;Temp;Humidity;BMP_temperature;BMP_pressure;BME280_temperature;BME280_humidity;BME280_pressure;Samples;Min_cycle;Max_cycle;Signal;HPM_P1;HPM_P2
2021/06/10 00:01:31;;;;;;;3.42;2.40;;;22.70;74.60;;;;;;5111911;28;20372;-84
2021/06/10 00:03:56;;;;;;;4.03;2.25;;;22.70;75.10;;;;;;5112561;28;20034;-84
2021/06/10 00:06:22;;;;;;;3.65;2.20;;;22.70;76.00;;;;;;5112585;28;20062;-85
2021/06/10 00:08:48;;;;;;;4.43;1.98;;;22.70;75.90;;;;;;5111967;28;20036;-84
2021/06/10 00:11:13;;;;;;;3.95;1.80;;;22.70;76.30;;;;;;5110656;28;20027;-84
2021/06/10 00:13:39;;;;;;;2.35;1.50;;;22.70;74.70;;;;;;5111768;28;20585;-84
2021/06/10 00:16:04;;;;;;;4.00;1.50;;;22.70;73.40;;;;;;5111945;28;20031;-82
2021/06/10 00:18:30;;;;;;;2.08;1.25;;;22.70;71.90;;;;;;5111718;28;20027;-85
2021/06/10 00:20:56;;;;;;;3.03;1.65;;;22.70;70.90;;;;;;5112263;28;20077;-85
2021/06/10 00:23:22;;;;;;;2.88;1.27;;;22.70;70.30;;;;;;5111997;28;20024;-84
2021/06/10 00:25:47;;;;;;;4.63;1.48;;;22.70;69.60;;;;;;5111967;28;20032;-85
2021/06/10 00:28:13;;;;;;;2.75;1.35;;;22.70;68.70;;;;;;5110177;28;20045;-85
2021/06/10 00:30:39;;;;;;;2.67;1.50;;;22.60;68.20;;;;;;5111159;28;20020;-85
2021/06/10 00:33:05;;;;;;;2.88;1.17;;;22.60;67.70;;;;;;5110377;28;20479;-86
2021/06/10 00:35:34;;;;;;;4.13;1.40;;;22.60;67.00;;;;;;5110385;28;20554;-84
2021/06/10 00:38:00;;;;;;;1.83;1.00;;;22.60;66.50;;;;;;5110467;28;20024;-85
2021/06/10 00:40:31;;;;;;;3.53;1.30;;;22.60;65.90;;;;;;5110691;28;20073;-85
2021/06/10 00:42:58;;;;;;;1.90;0.90;;;22.60;65.40;;;;;;5110567;28;20023;-84
2021/06/10 00:45:25;;;;;;;1.40;0.90;;;22.60;65.20;;;;;;5110613;28;20114;-85
2021/06/10 00:47:53;;;;;;;1.88;1.00;;;22.50;64.40;;;;;;5111542;28;20118;-85
2021/06/10 00:50:23;;;;;;;2.10;1.10;;;22.50;64.10;;;;;;5110375;28;20470;-84
2021/06/10 00:52:49;;;;;;;3.22;1.08;;;22.40;64.20;;;;;;5111513;28;20040;-90
2021/06/10 00:55:15;;;;;;;2.17;1.02;;;22.40;63.70;;;;;;5110581;28;20019;-86
2021/06/10 00:57:41;;;;;;;1.73;0.85;;;22.40;63.70;;;;;;5110474;28;20111;-87
2021/06/10 01:00:09;;;;;;;7.47;0.98;;;22.40;63.50;;;;;;5113758;28;20547;-87
2021/06/10 01:02:35;;;;;;;2.08;1.00;;;22.30;63.70;;;;;;5114297;28;20024;-86
2021/06/10 01:05:01;;;;;;;1.98;0.93;;;22.30;63.50;;;;;;5115695;28;20028;-86
2021/06/10 01:07:58;;;;;;;1.25;0.90;;;22.30;63.40;;;;;;5114197;28;20425;-84
2021/06/10 01:10:46;;;;;;;1.42;0.90;;;22.30;63.40;;;;;;5115920;28;20471;-86
2021/06/10 01:13:37;;;;;;;1.45;0.95;;;22.30;63.50;;;;;;5114394;28;20135;-84
2021/06/10 01:16:04;;;;;;;1.98;0.77;;;22.20;63.60;;;;;;5115483;28;20051;-83
2021/06/10 01:18:31;;;;;;;1.95;0.90;;;22.30;63.70;;;;;;5115213;28;20490;-84
2021/06/10 01:20:58;;;;;;;1.88;0.85;;;22.20;63.60;;;;;;5114145;28;20026;-82
2021/06/10 01:23:25;;;;;;;1.42;0.70;;;22.20;63.70;;;;;;5114234;28;20483;-84
2021/06/10 01:25:51;;;;;;;2.30;1.08;;;22.20;63.50;;;;;;5113704;28;20020;-83
2021/06/10 01:28:32;;;;;;;2.45;1.02;;;22.10;63.50;;;;;;5114720;28;20037;-83
2021/06/10 01:31:07;;;;;;;7.45;2.60;;;22.10;63.60;;;;;;5114434;28;20028;-82
2021/06/10 01:33:37;;;;;;;5.53;3.28;;;22.10;63.70;;;;;;5107101;28;20031;-83
2021/06/10 01:36:11;;;;;;;7.30;3.80;;;22.10;63.70;;;;;;5115072;28;20024;-83
2021/06/10 01:38:39;;;;;;;9.68;4.28;;;22.10;63.90;;;;;;5114767;28;20020;-82
2021/06/10 01:41:06;;;;;;;10.43;5.07;;;22.10;64.00;;;;;;5115041;28;20023;-83
2021/06/10 01:43:36;;;;;;;8.75;4.75;;;22.00;64.10;;;;;;5114596;28;20019;-84
2021/06/10 01:46:03;;;;;;;8.25;4.25;;;22.00;64.00;;;;;;5112957;28;20039;-83
2021/06/10 01:48:30;;;;;;;5.97;3.35;;;22.00;64.20;;;;;;5114544;28;20073;-84
2021/06/10 01:50:58;;;;;;;8.32;4.00;;;22.00;64.20;;;;;;5115044;28;20038;-83
2021/06/10 01:53:24;;;;;;;8.30;4.80;;;22.00;64.30;;;;;;5113640;28;20114;-83
2021/06/10 01:55:54;;;;;;;9.02;4.03;;;22.00;64.40;;;;;;5114386;28;20094;-83
2021/06/10 01:58:21;;;;;;;10.80;4.55;;;21.90;64.40;;;;;;5114166;28;20024;-83
2021/06/10 02:00:49;;;;;;;8.07;4.38;;;22.00;64.60;;;;;;5114128;28;20035;-83
2021/06/10 02:03:17;;;;;;;7.68;4.45;;;21.90;64.60;;;;;;5114145;28;20035;-84
2021/06/10 02:05:42;;;;;;;10.13;4.97;;;21.90;64.70;;;;;;5114212;28;20551;-82
2021/06/10 02:08:13;;;;;;;9.05;4.55;;;21.90;64.70;;;;;;5113060;28;20111;-83
2021/06/10 02:10:45;;;;;;;9.80;5.00;;;21.90;64.90;;;;;;5113523;28;20027;-82
2021/06/10 02:13:11;;;;;;;8.02;4.97;;;21.80;65.00;;;;;;5114421;28;20387;-85
2021/06/10 02:15:37;;;;;;;9.82;4.90;;;21.80;65.00;;;;;;5112918;28;20020;-87
2021/06/10 02:18:03;;;;;;;8.48;5.28;;;21.80;65.10;;;;;;5113069;28;20536;-84
2021/06/10 02:20:29;;;;;;;11.05;5.18;;;21.80;65.20;;;;;;5112860;28;20019;-84
2021/06/10 02:22:54;;;;;;;8.57;5.25;;;21.80;65.30;;;;;;5114638;28;20024;-83
2021/06/10 02:25:20;;;;;;;12.18;5.10;;;21.70;65.30;;;;;;5114186;28;20024;-84
2021/06/10 02:27:46;;;;;;;14.15;5.93;;;21.80;65.50;;;;;;5113968;28;20391;-84
2021/06/10 02:30:14;;;;;;;12.57;5.72;;;21.80;65.50;;;;;;5113502;28;20024;-84
2021/06/10 02:32:39;;;;;;;14.38;6.13;;;21.70;65.50;;;;;;5112473;28;20123;-82
2021/06/10 02:35:08;;;;;;;10.27;5.32;;;21.70;65.80;;;;;;5112547;28;20102;-82
2021/06/10 02:37:35;;;;;;;10.27;5.43;;;21.70;65.80;;;;;;5112327;28;20085;-84
2021/06/10 02:40:05;;;;;;;10.43;5.32;;;21.70;65.80;;;;;;5113936;28;20031;-85
2021/06/10 02:42:31;;;;;;;10.45;5.10;;;21.70;65.90;;;;;;5113519;28;20024;-83
2021/06/10 02:44:57;;;;;;;11.48;5.00;;;21.70;65.80;;;;;;5113756;28;20028;-85
2021/06/10 02:47:25;;;;;;;11.20;4.28;;;21.70;65.90;;;;;;5113831;28;20077;-84
2021/06/10 02:49:52;;;;;;;7.57;4.22;;;21.70;65.90;;;;;;5113535;28;20023;-85
2021/06/10 02:52:20;;;;;;;10.63;4.07;;;21.70;65.90;;;;;;5113702;28;20039;-85
2021/06/10 02:54:47;;;;;;;6.68;3.53;;;21.60;65.90;;;;;;5113324;27;20024;-84
2021/06/10 02:57:15;;;;;;;6.75;4.00;;;21.60;66.00;;;;;;5113576;28;20502;-85
2021/06/10 02:59:43;;;;;;;5.38;3.35;;;21.60;66.00;;;;;;5112658;28;20028;-84
2021/06/10 03:02:10;;;;;;;8.13;3.42;;;21.60;66.00;;;;;;5111656;28;20032;-85
2021/06/10 03:04:36;;;;;;;6.07;3.03;;;21.60;66.00;;;;;;5113165;28;20024;-84
2021/06/10 03:07:02;;;;;;;5.65;2.97;;;21.60;66.10;;;;;;5113387;28;20465;-84
2021/06/10 03:09:29;;;;;;;5.68;2.80;;;21.60;66.10;;;;;;5111826;28;20031;-83
2021/06/10 03:11:55;;;;;;;4.20;2.15;;;21.60;66.20;;;;;;5113420;28;20036;-83
2021/06/10 03:14:21;;;;;;;6.05;2.53;;;21.50;66.10;;;;;;5113173;28;20086;-84
2021/06/10 03:16:48;;;;;;;5.20;2.63;;;21.50;66.00;;;;;;5112885;28;20024;-82
2021/06/10 03:19:16;;;;;;;5.43;2.33;;;21.50;66.00;;;;;;5113136;28;20103;-84
2021/06/10 03:21:43;;;;;;;6.13;2.53;;;21.50;66.00;;;;;;5111601;28;20020;-85
2021/06/10 03:24:09;;;;;;;4.63;2.15;;;21.50;65.90;;;;;;5113003;28;20031;-84
2021/06/10 03:26:36;;;;;;;3.72;2.15;;;21.50;65.90;;;;;;5111676;28;20061;-85
2021/06/10 03:29:03;;;;;;;5.28;2.13;;;21.50;66.00;;;;;;5112431;28;20035;-84
2021/06/10 03:31:30;;;;;;;3.35;2.00;;;21.50;66.10;;;;;;5111604;28;20395;-84
2021/06/10 03:33:57;;;;;;;4.95;2.42;;;21.50;66.10;;;;;;5113038;28;20020;-84
2021/06/10 03:36:24;;;;;;;7.55;2.20;;;21.50;66.20;;;;;;5111464;28;20114;-84
2021/06/10 03:38:51;;;;;;;2.60;1.77;;;21.40;66.20;;;;;;5112437;28;20406;-85
2021/06/10 03:41:18;;;;;;;2.95;1.70;;;21.40;66.10;;;;;;5112715;28;20031;-85
2021/06/10 03:43:45;;;;;;;4.05;1.90;;;21.40;66.20;;;;;;5111017;28;20444;-83
2021/06/10 03:46:11;;;;;;;3.40;1.63;;;21.40;66.30;;;;;;5112453;28;20028;-85
2021/06/10 03:48:41;;;;;;;4.35;1.50;;;21.40;66.40;;;;;;5112350;28;20016;-85
2021/06/10 03:51:15;;;;;;;4.28;1.80;;;21.40;66.40;;;;;;5112354;28;20058;-85
2021/06/10 03:53:44;;;;;;;3.63;1.77;;;21.40;66.60;;;;;;5112372;28;20118;-85
2021/06/10 03:56:10;;;;;;;2.92;1.48;;;21.40;66.70;;;;;;5111116;28;20015;-85
2021/06/10 03:58:36;;;;;;;3.03;1.52;;;21.40;66.70;;;;;;5111968;28;20023;-86
2021/06/10 04:01:02;;;;;;;2.03;1.48;;;21.40;66.70;;;;;;5112350;28;20027;-84
2021/06/10 04:03:28;;;;;;;2.22;1.52;;;21.40;66.80;;;;;;5111147;28;20054;-86
2021/06/10 04:05:54;;;;;;;4.85;1.55;;;21.40;66.80;;;;;;5112277;28;20539;-86
2021/06/10 04:08:19;;;;;;;2.30;1.27;;;21.40;66.80;;;;;;5112170;28;20103;-87
2021/06/10 04:10:45;;;;;;;3.60;1.80;;;21.30;66.80;;;;;;5111805;28;20023;-86
2021/06/10 04:13:11;;;;;;;3.55;1.50;;;21.30;66.80;;;;;;5112064;28;20032;-86
2021/06/10 04:15:36;;;;;;;5.28;1.42;;;21.30;66.90;;;;;;5110416;28;20020;-87
2021/06/10 04:18:02;;;;;;;3.03;1.45;;;21.30;66.80;;;;;;5111976;28;20083;-87
2021/06/10 04:20:28;;;;;;;3.80;1.52;;;21.30;66.90;;;;;;5112448;28;20031;-87
2021/06/10 04:22:54;;;;;;;2.92;1.40;;;21.30;67.00;;;;;;5110718;28;20471;-88
2021/06/10 04:25:19;;;;;;;3.72;1.50;;;21.30;66.90;;;;;;5111968;28;20031;-87
2021/06/10 04:27:45;;;;;;;1.77;1.20;;;21.30;67.00;;;;;;5111381;28;20028;-87
2021/06/10 04:30:12;;;;;;;3.88;1.40;;;21.20;66.90;;;;;;5111605;28;20533;-86
2021/06/10 04:32:39;;;;;;;4.40;1.60;;;21.30;67.00;;;;;;5111327;28;20110;-85
2021/06/10 04:35:06;;;;;;;4.00;1.30;;;21.30;67.00;;;;;;5110436;28;20030;-85
2021/06/10 04:37:32;;;;;;;4.30;1.60;;;21.30;67.20;;;;;;5111608;28;20377;-86
2021/06/10 04:39:58;;;;;;;4.35;1.73;;;21.30;67.20;;;;;;5112042;28;20024;-85
2021/06/10 04:42:24;;;;;;;2.45;1.30;;;21.30;67.20;;;;;;5110466;28;20369;-84
2021/06/10 04:44:50;;;;;;;2.88;1.23;;;21.20;67.20;;;;;;5111434;28;20031;-87
2021/06/10 04:47:16;;;;;;;3.92;1.95;;;21.30;67.40;;;;;;5111515;28;20027;-86
2021/06/10 04:49:42;;;;;;;2.55;1.48;;;21.30;67.40;;;;;;5111395;28;20072;-87
2021/06/10 04:52:08;;;;;;;2.53;1.63;;;21.30;67.50;;;;;;5111690;28;20035;-86
2021/06/10 04:54:34;;;;;;;3.05;1.60;;;21.30;67.50;;;;;;5111296;28;20062;-86
2021/06/10 04:57:00;;;;;;;4.53;1.70;;;21.30;67.60;;;;;;5111516;28;20119;-84
2021/06/10 04:59:26;;;;;;;3.40;1.77;;;21.30;67.70;;;;;;5111102;28;20094;-86
2021/06/10 05:01:52;;;;;;;5.53;1.83;;;21.30;67.90;;;;;;5110920;28;20102;-86
2021/06/10 05:04:17;;;;;;;2.97;1.38;;;21.30;67.90;;;;;;5110050;28;20111;-86
2021/06/10 05:06:43;;;;;;;3.70;1.50;;;21.30;67.90;;;;;;5111140;28;20031;-83
2021/06/10 05:09:09;;;;;;;3.92;1.25;;;21.30;67.90;;;;;;5110060;28;20027;-83
2021/06/10 05:11:34;;;;;;;2.83;1.30;;;21.30;67.80;;;;;;5111160;28;20030;-83
2021/06/10 05:14:00;;;;;;;3.25;1.70;;;21.40;68.00;;;;;;5111552;28;20070;-84
2021/06/10 05:16:27;;;;;;;6.25;2.13;;;21.40;68.10;;;;;;5110319;28;20024;-83
2021/06/10 05:18:53;;;;;;;3.53;1.38;;;21.40;68.40;;;;;;5110991;28;20475;-84
2021/06/10 05:21:19;;;;;;;4.28;1.92;;;21.40;68.30;;;;;;5111081;28;20030;-83
2021/06/10 05:23:44;;;;;;;3.97;1.40;;;21.40;68.30;;;;;;5110848;28;20032;-83
2021/06/10 05:26:10;;;;;;;4.65;1.80;;;21.40;68.20;;;;;;5111293;28;20468;-83
2021/06/10 05:28:36;;;;;;;3.65;2.05;;;21.50;68.30;;;;;;5111012;28;20019;-83
2021/06/10 05:31:05;;;;;;;4.57;1.55;;;21.50;68.40;;;;;;5109621;28;20030;-84
2021/06/10 05:33:31;;;;;;;7.80;1.88;;;21.50;68.30;;;;;;5110379;28;20039;-85
2021/06/10 05:35:57;;;;;;;4.60;1.60;;;21.50;68.40;;;;;;5110887;28;20028;-85
2021/06/10 05:38:22;;;;;;;3.30;2.00;;;21.50;68.60;;;;;;5110524;28;20028;-86
2021/06/10 05:40:48;;;;;;;3.40;1.70;;;21.50;68.60;;;;;;5110369;28;20032;-84
2021/06/10 05:43:13;;;;;;;5.30;2.72;;;21.50;68.60;;;;;;5109536;28;20034;-81
2021/06/10 05:45:39;;;;;;;4.15;2.33;;;21.50;70.00;;;;;;5112456;28;20046;-83
2021/06/10 05:48:06;;;;;;;7.28;2.72;;;21.50;70.00;;;;;;5114586;28;20029;-84
2021/06/10 05:50:32;;;;;;;6.30;3.65;;;21.50;70.40;;;;;;5112823;28;20114;-83
2021/06/10 05:52:57;;;;;;;7.78;4.15;;;21.40;71.50;;;;;;5114493;28;20123;-83
2021/06/10 05:55:23;;;;;;;7.68;4.85;;;21.30;71.90;;;;;;5113302;28;20503;-84
2021/06/10 05:57:49;;;;;;;6.82;4.82;;;21.30;72.70;;;;;;5113867;28;20038;-82
2021/06/10 06:00:16;;;;;;;7.95;5.25;;;21.20;73.50;;;;;;5112955;28;20394;-84
2021/06/10 06:02:42;;;;;;;13.85;5.30;;;21.20;74.00;;;;;;5113959;28;20492;-84
2021/06/10 06:05:08;;;;;;;8.68;6.05;;;21.10;74.40;;;;;;5112931;28;20115;-84
2021/06/10 06:07:35;;;;;;;7.60;5.47;;;21.10;74.90;;;;;;5113783;28;20384;-85
2021/06/10 06:10:00;;;;;;;8.07;5.32;;;21.10;75.30;;;;;;5114643;28;20037;-84
2021/06/10 06:12:27;;;;;;;9.27;6.20;;;21.20;75.30;;;;;;5114271;28;20575;-84
2021/06/10 06:14:52;;;;;;;9.55;6.20;;;21.10;75.60;;;;;;5113826;28;20015;-86
2021/06/10 06:17:18;;;;;;;7.28;5.60;;;21.10;75.80;;;;;;5112376;28;20483;-85
2021/06/10 06:19:44;;;;;;;7.07;5.15;;;21.10;76.30;;;;;;5111939;28;20487;-85
2021/06/10 06:22:11;;;;;;;9.73;5.70;;;21.10;76.50;;;;;;5113204;28;20027;-86
2021/06/10 06:24:37;;;;;;;10.35;5.55;;;21.10;76.60;;;;;;5110551;28;20108;-82
2021/06/10 06:27:03;;;;;;;10.35;6.05;;;21.10;76.70;;;;;;5111901;28;20384;-85
2021/06/10 06:29:29;;;;;;;9.98;6.10;;;21.10;76.80;;;;;;5111985;28;20043;-84
2021/06/10 06:31:55;;;;;;;7.90;5.47;;;21.10;77.10;;;;;;5111900;28;20043;-84
2021/06/10 06:34:21;;;;;;;7.20;5.40;;;21.20;77.40;;;;;;5110749;28;20023;-82
2021/06/10 06:36:47;;;;;;;7.38;5.28;;;21.20;77.20;;;;;;5112141;28;20058;-86
2021/06/10 06:39:14;;;;;;;8.93;5.53;;;21.20;77.50;;;;;;5111364;28;20059;-85
2021/06/10 06:41:40;;;;;;;9.50;5.72;;;21.20;77.20;;;;;;5112486;28;20027;-81
2021/06/10 06:44:05;;;;;;;7.32;6.00;;;21.20;77.00;;;;;;5113295;28;20070;-78
2021/06/10 06:46:32;;;;;;;10.38;6.75;;;21.20;77.50;;;;;;5113277;28;20048;-77
2021/06/10 06:48:58;;;;;;;7.82;6.15;;;21.30;77.40;;;;;;5113457;28;20470;-78
2021/06/10 06:51:24;;;;;;;6.88;5.40;;;21.30;78.20;;;;;;5112210;28;20119;-78
2021/06/10 06:53:50;;;;;;;7.55;5.70;;;21.30;78.20;;;;;;5113023;28;20104;-78
2021/06/10 06:56:16;;;;;;;7.32;5.07;;;21.30;78.70;;;;;;5113259;28;20102;-79
2021/06/10 06:58:42;;;;;;;7.57;4.07;;;21.30;78.30;;;;;;5113153;28;20031;-77
2021/06/10 07:01:08;;;;;;;10.30;3.55;;;21.30;77.60;;;;;;5113569;28;20028;-79
2021/06/10 07:03:34;;;;;;;5.57;3.30;;;21.40;77.60;;;;;;5112273;28;20544;-78
2021/06/10 07:06:00;;;;;;;6.47;3.25;;;21.40;77.30;;;;;;5113082;28;20035;-78
2021/06/10 07:08:29;;;;;;;5.95;2.38;;;21.40;77.30;;;;;;5111890;28;20565;-79
2021/06/10 07:10:55;;;;;;;5.13;2.72;;;21.50;77.10;;;;;;5112398;28;20083;-78
2021/06/10 07:13:22;;;;;;;5.05;2.67;;;21.50;77.20;;;;;;5112736;28;20038;-78
2021/06/10 07:15:48;;;;;;;4.43;2.42;;;21.50;77.00;;;;;;5110629;28;20038;-80
2021/06/10 07:18:14;;;;;;;5.38;3.03;;;21.60;78.00;;;;;;5111697;28;20024;-81
2021/06/10 07:20:39;;;;;;;11.07;2.70;;;21.50;77.00;;;;;;5112081;28;20379;-85
2021/06/10 07:23:05;;;;;;;3.67;2.03;;;21.60;76.90;;;;;;5111864;28;20111;-85
2021/06/10 07:25:31;;;;;;;7.85;2.30;;;21.60;76.90;;;;;;5111723;28;20031;-80
2021/06/10 07:27:56;;;;;;;5.20;1.88;;;21.60;76.80;;;;;;5113314;28;20027;-86
2021/06/10 07:30:22;;;;;;;5.20;2.58;;;21.60;77.00;;;;;;5111549;28;20028;-84
2021/06/10 07:32:49;;;;;;;3.55;1.73;;;21.70;77.00;;;;;;5111892;28;20038;-85
2021/06/10 07:35:15;;;;;;;2.40;1.58;;;21.70;76.80;;;;;;5112790;28;20039;-85
2021/06/10 07:37:41;;;;;;;3.95;1.58;;;21.70;76.70;;;;;;5110991;28;20031;-85
2021/06/10 07:40:07;;;;;;;3.28;1.80;;;21.70;76.60;;;;;;5112271;28;20102;-85
2021/06/10 07:42:33;;;;;;;5.55;2.00;;;21.70;76.50;;;;;;5110711;28;20034;-86
2021/06/10 07:44:59;;;;;;;4.13;1.95;;;21.70;76.50;;;;;;5112760;28;20387;-85
2021/06/10 07:47:24;;;;;;;3.08;1.50;;;21.70;76.50;;;;;;5111227;28;20035;-86
2021/06/10 07:49:50;;;;;;;2.72;1.40;;;21.80;76.40;;;;;;5110791;28;20097;-85
2021/06/10 07:52:16;;;;;;;4.20;1.38;;;21.80;76.30;;;;;;5112649;28;20119;-90
2021/06/10 07:54:41;;;;;;;2.80;1.70;;;21.80;76.20;;;;;;5111590;28;20019;-90
2021/06/10 07:57:09;;;;;;;3.85;1.60;;;21.80;76.10;;;;;;5112070;28;20088;-89
2021/06/10 07:59:35;;;;;;;3.60;1.50;;;21.80;76.00;;;;;;5111664;28;20090;-89
2021/06/10 08:02:01;;;;;;;3.95;1.52;;;21.80;76.00;;;;;;5111624;28;20019;-88
2021/06/10 08:04:27;;;;;;;4.10;1.38;;;21.80;75.90;;;;;;5111905;28;20023;-89
2021/06/10 08:06:52;;;;;;;3.13;1.30;;;21.80;75.90;;;;;;5112332;28;20379;-88
2021/06/10 08:09:18;;;;;;;2.80;1.25;;;21.80;75.80;;;;;;5112476;28;20033;-89
2021/06/10 08:11:45;;;;;;;2.55;1.33;;;21.80;75.70;;;;;;5112336;28;20039;-89
2021/06/10 08:14:11;;;;;;;3.22;1.42;;;21.80;75.70;;;;;;5112781;28;20023;-88
2021/06/10 08:16:37;;;;;;;4.18;1.55;;;21.80;75.60;;;;;;5111179;28;20055;-89
2021/06/10 08:19:04;;;;;;;2.83;1.40;;;21.90;75.70;;;;;;5111288;28;20069;-91
2021/06/10 08:21:30;;;;;;;2.67;1.50;;;21.90;75.70;;;;;;5113029;28;20043;-92
2021/06/10 08:23:57;;;;;;;2.30;1.05;;;21.90;76.40;;;;;;5113146;28;20035;-88
2021/06/10 08:26:23;;;;;;;5.63;1.52;;;21.90;75.60;;;;;;5111867;28;20114;-91
2021/06/10 08:28:49;;;;;;;3.65;1.13;;;21.90;75.60;;;;;;5111558;28;20016;-87
2021/06/10 08:31:16;;;;;;;4.65;1.42;;;21.90;75.50;;;;;;5111735;28;20092;-84
2021/06/10 08:33:42;;;;;;;2.88;1.45;;;21.90;75.50;;;;;;5111401;28;20031;-84
2021/06/10 08:36:08;;;;;;;3.45;1.25;;;21.90;75.50;;;;;;5111752;28;20499;-85
2021/06/10 08:38:36;;;;;;;3.38;1.30;;;21.90;75.50;;;;;;5110224;28;20140;-85
2021/06/10 08:41:02;;;;;;;1.80;1.00;;;21.90;75.50;;;;;;5111594;28;20020;-85
2021/06/10 08:43:28;;;;;;;7.07;1.30;;;22.00;75.50;;;;;;5112113;28;20062;-85
2021/06/10 08:46:07;;;;;;;2.35;1.27;;;21.90;75.40;;;;;;5111252;28;20055;-85
2021/06/10 08:48:38;;;;;;;2.55;1.23;;;22.00;75.50;;;;;;5110866;28;20024;-84
2021/06/10 08:51:05;;;;;;;2.05;1.20;;;22.00;75.40;;;;;;5109569;28;20519;-85
2021/06/10 08:53:31;;;;;;;2.20;1.20;;;22.00;75.40;;;;;;5109741;28;20032;-85
2021/06/10 08:55:57;;;;;;;1.77;1.00;;;22.00;75.40;;;;;;5111879;28;20024;-85
2021/06/10 08:58:29;;;;;;;2.35;1.05;;;22.00;75.30;;;;;;5110184;28;20494;-85
2021/06/10 09:00:56;;;;;;;2.88;1.20;;;22.00;75.30;;;;;;5109852;28;20066;-85
2021/06/10 09:03:34;;;;;;;1.55;1.08;;;22.00;75.30;;;;;;5110133;28;20051;-84
2021/06/10 09:06:05;;;;;;;2.67;1.10;;;22.00;75.30;;;;;;5110518;28;20027;-85
2021/06/10 09:08:31;;;;;;;1.23;0.88;;;22.00;75.30;;;;;;5111703;28;20553;-85
2021/06/10 09:11:03;;;;;;;4.32;0.98;;;22.00;75.20;;;;;;5110330;28;20114;-86
2021/06/10 09:13:56;;;;;;;2.30;1.20;;;22.00;75.20;;;;;;5111788;28;20035;-86
2021/06/10 09:16:28;;;;;;;2.60;1.10;;;22.00;75.10;;;;;;5110842;28;20050;-85
2021/06/10 09:19:13;;;;;;;2.10;1.20;;;22.10;75.10;;;;;;5109711;28;20369;-84
2021/06/10 09:21:41;;;;;;;1.40;0.88;;;22.10;75.10;;;;;;5113586;28;20027;-86
2021/06/10 09:24:17;;;;;;;2.42;1.00;;;22.10;75.10;;;;;;5113847;28;20024;-84
2021/06/10 09:26:45;;;;;;;1.33;0.95;;;22.10;75.00;;;;;;5115107;28;20024;-85
2021/06/10 09:29:11;;;;;;;1.88;0.82;;;22.10;75.00;;;;;;5115305;28;20483;-85
2021/06/10 09:31:37;;;;;;;2.17;0.88;;;22.10;75.10;;;;;;5114583;28;20031;-92
2021/06/10 09:34:09;;;;;;;1.30;1.00;;;22.10;75.20;;;;;;5115941;28;20019;-90
2021/06/10 09:36:47;;;;;;;2.05;1.02;;;22.10;75.20;;;;;;5114363;28;20336;-91
2021/06/10 09:39:17;;;;;;;1.80;1.30;;;22.10;75.20;;;;;;5115301;28;20019;-87
2021/06/10 09:42:04;;;;;;;1.60;1.00;;;22.10;75.20;;;;;;5113337;28;20030;-90
2021/06/10 09:44:48;;;;;;;2.10;0.85;;;22.10;75.30;;;;;;5115255;28;20027;-86
2021/06/10 09:47:16;;;;;;;2.58;0.93;;;22.10;75.40;;;;;;5115383;28;20024;-89
2021/06/10 09:49:41;;;;;;;3.53;1.10;;;22.10;75.30;;;;;;5114889;28;20026;-88
2021/06/10 09:52:07;;;;;;;3.00;0.90;;;22.10;75.30;;;;;;5113793;28;20035;-89
2021/06/10 09:54:41;;;;;;;3.75;1.00;;;22.10;75.30;;;;;;5114908;28;20023;-89
2021/06/10 09:57:08;;;;;;;2.55;1.20;;;22.10;75.30;;;;;;5113620;28;20050;-89
2021/06/10 09:59:49;;;;;;;1.60;0.82;;;22.10;75.30;;;;;;5114386;28;20119;-90
2021/06/10 10:02:24;;;;;;;2.95;1.00;;;22.20;75.40;;;;;;5115099;28;20020;-87
2021/06/10 10:05:07;;;;;;;1.38;1.02;;;22.20;75.40;;;;;;5113331;28;20542;-88
2021/06/10 10:07:35;;;;;;;1.60;0.93;;;22.20;75.40;;;;;;5114120;27;20032;-89
2021/06/10 10:10:05;;;;;;;4.20;1.40;;;22.20;75.40;;;;;;5114730;28;20031;-79
2021/06/10 10:12:32;;;;;;;1.80;1.10;;;22.20;75.40;;;;;;5114626;28;20032;-90
2021/06/10 10:14:59;;;;;;;1.48;0.85;;;22.20;75.40;;;;;;5113177;28;20020;-87
2021/06/10 10:17:27;;;;;;;1.25;0.93;;;22.20;75.30;;;;;;5112203;28;20024;-88
2021/06/10 10:19:55;;;;;;;2.10;0.82;;;22.20;75.40;;;;;;5112158;28;20432;-89
2021/06/10 10:22:21;;;;;;;1.77;0.90;;;22.20;75.30;;;;;;5112026;28;20047;-89
2021/06/10 10:24:47;;;;;;;1.77;1.00;;;22.20;75.40;;;;;;5114493;28;20023;-89
2021/06/10 10:27:13;;;;;;;1.95;1.10;;;22.20;75.30;;;;;;5114712;28;20020;-90
2021/06/10 10:29:44;;;;;;;1.45;0.82;;;22.20;75.30;;;;;;5114528;28;20023;-89
2021/06/10 10:32:19;;;;;;;2.50;0.70;;;22.30;75.40;;;;;;5113967;28;20491;-89
2021/06/10 10:34:45;;;;;;;2.77;1.47;;;22.30;75.50;;;;;;5114348;28;20464;-90
2021/06/10 10:37:20;;;;;;;1.30;0.80;;;22.30;75.50;;;;;;5114499;28;20268;-91
2021/06/10 10:39:46;;;;;;;1.65;1.02;;;22.30;75.50;;;;;;5114172;28;20439;-90
2021/06/10 10:42:31;;;;;;;2.45;1.10;;;22.30;75.50;;;;;;5113822;28;20028;-91
2021/06/10 10:45:15;;;;;;;1.17;0.82;;;22.30;75.50;;;;;;5112345;28;20031;-85
2021/06/10 10:47:47;;;;;;;1.10;0.85;;;22.30;75.60;;;;;;5105473;28;20099;-82
2021/06/10 10:50:19;;;;;;;1.55;0.90;;;22.30;75.80;;;;;;5112120;28;20031;-82
2021/06/10 10:52:56;;;;;;;1.30;0.70;;;22.30;75.70;;;;;;5109640;28;20533;-78
2021/06/10 10:55:33;;;;;;;1.45;0.90;;;22.30;75.90;;;;;;5109613;28;20091;-80
2021/06/10 10:58:10;;;;;;;3.08;1.08;;;22.30;75.80;;;;;;5111909;28;20030;-80
2021/06/10 11:00:45;;;;;;;0.77;0.60;;;22.40;76.10;;;;;;5111428;28;20020;-80
2021/06/10 11:03:44;;;;;;;1.83;1.20;;;22.40;76.10;;;;;;5110536;28;20019;-79
2021/06/10 11:06:24;;;;;;;21.80;14.40;;;22.40;76.30;;;;;;5110680;28;20019;-78
2021/06/10 11:09:12;;;;;;;11.55;7.05;;;22.40;77.10;;;;;;5110079;28;20019;-78
2021/06/10 11:12:04;;;;;;;7.07;4.22;;;22.40;77.50;;;;;;5111091;28;20041;-79
2021/06/10 11:14:53;;;;;;;9.43;5.22;;;22.50;78.90;;;;;;5110647;28;20034;-80
2021/06/10 11:17:32;;;;;;;6.22;3.78;;;22.50;79.10;;;;;;5111522;28;20107;-83
2021/06/10 11:20:02;;;;;;;5.20;3.35;;;22.60;79.10;;;;;;5111714;28;20490;-84
2021/06/10 11:22:39;;;;;;;7.45;3.58;;;22.60;78.80;;;;;;5111180;28;20059;-82
2021/06/10 11:25:15;;;;;;;7.18;3.13;;;22.60;78.40;;;;;;5112169;28;20103;-82
2021/06/10 11:27:41;;;;;;;6.07;2.85;;;22.60;78.30;;;;;;5110753;28;20027;-83
2021/06/10 11:30:20;;;;;;;5.65;2.90;;;22.60;78.30;;;;;;5110830;28;20394;-82
2021/06/10 11:33:10;;;;;;;4.32;2.42;;;22.60;78.20;;;;;;5111791;28;20028;-82
2021/06/10 11:35:35;;;;;;;3.22;1.95;;;22.60;78.10;;;;;;5108682;28;20463;-80
2021/06/10 11:38:09;;;;;;;3.33;1.92;;;22.60;78.10;;;;;;5111974;28;20047;-79
2021/06/10 11:40:34;;;;;;;3.90;2.35;;;22.60;78.00;;;;;;5110080;28;20391;-79
2021/06/10 11:43:05;;;;;;;2.90;2.08;;;22.60;77.90;;;;;;5109926;28;20031;-83
2021/06/10 11:45:30;;;;;;;3.00;1.80;;;22.60;78.00;;;;;;5111781;28;20042;-80
2021/06/10 11:47:56;;;;;;;2.92;1.70;;;22.70;77.60;;;;;;5108797;28;20063;-85
2021/06/10 11:50:44;;;;;;;4.53;1.83;;;22.70;77.40;;;;;;5110956;28;20043;-86
2021/06/10 11:53:18;;;;;;;2.88;1.63;;;22.70;77.60;;;;;;5110623;28;20234;-82
2021/06/10 11:55:46;;;;;;;2.38;1.33;;;22.70;77.50;;;;;;5112084;28;20102;-82
2021/06/10 11:58:14;;;;;;;4.07;1.27;;;22.70;77.40;;;;;;5110241;28;20023;-82
2021/06/10 12:00:42;;;;;;;2.95;1.50;;;22.70;77.40;;;;;;5111965;28;20093;-81
2021/06/10 12:03:11;;;;;;;3.15;1.42;;;22.70;77.30;;;;;;5111809;28;20039;-80
2021/06/10 12:05:54;;;;;;;2.92;1.52;;;22.70;77.40;;;;;;5109837;28;20391;-84
2021/06/10 12:08:25;;;;;;;3.30;1.30;;;22.70;77.30;;;;;;5112051;28;20024;-81
2021/06/10 12:10:56;;;;;;;2.45;1.20;;;22.80;77.30;;;;;;5108788;28;20112;-81
2021/06/10 12:13:34;;;;;;;3.72;1.00;;;22.80;77.20;;;;;;5103863;28;20118;-81
2021/06/10 12:16:05;;;;;;;3.13;1.20;;;22.80;77.10;;;;;;5112255;28;20075;-82
2021/06/10 12:18:32;;;;;;;3.15;1.00;;;22.80;76.90;;;;;;5111168;28;20035;-80
2021/06/10 12:21:01;;;;;;;1.70;0.80;;;22.80;76.70;;;;;;5112147;28;20030;-82
2021/06/10 12:23:35;;;;;;;2.88;1.08;;;22.90;76.70;;;;;;5110910;28;20024;-81
2021/06/10 12:26:03;;;;;;;1.60;1.00;;;22.90;76.60;;;;;;5110332;28;20491;-81
2021/06/10 12:28:31;;;;;;;2.10;1.08;;;22.90;76.40;;;;;;5111625;28;20027;-83
2021/06/10 12:31:08;;;;;;;1.88;1.02;;;22.90;76.40;;;;;;5112067;28;20047;-81
2021/06/10 12:33:36;;;;;;;3.58;0.90;;;23.00;76.50;;;;;;5111742;28;20101;-81
2021/06/10 12:36:12;;;;;;;1.83;0.90;;;23.00;76.50;;;;;;5111775;28;20026;-81
2021/06/10 12:38:40;;;;;;;1.88;0.93;;;23.00;76.40;;;;;;5111780;28;20035;-81
2021/06/10 12:41:16;;;;;;;3.60;1.10;;;23.00;76.40;;;;;;5111548;28;20114;-81
2021/06/10 12:43:44;;;;;;;1.20;0.90;;;23.00;76.40;;;;;;5111659;28;20090;-81
2021/06/10 12:46:10;;;;;;;0.95;0.68;;;23.00;76.40;;;;;;5111575;28;20032;-80
2021/06/10 12:48:37;;;;;;;1.50;1.08;;;23.10;76.30;;;;;;5110122;28;20031;-80
2021/06/10 12:51:22;;;;;;;2.80;1.10;;;23.10;76.30;;;;;;5111532;28;20524;-81
2021/06/10 12:54:09;;;;;;;2.03;0.80;;;23.10;76.20;;;;;;5112383;28;20050;-81